createdAt,value
2022-12-17T00:02:18.650Z,-5.30
2022-12-17T00:06:03.556Z,-5.32
2022-12-17T00:09:50.344Z,-5.36
2022-12-17T00:13:40.868Z,-5.39
2022-12-17T00:17:25.510Z,-5.43
2022-12-17T00:21:14.400Z,-5.46
2022-12-17T00:24:58.464Z,-5.47
2022-12-17T00:28:42.625Z,-5.46
2022-12-17T00:32:28.315Z,-5.48
2022-12-17T00:36:13.284Z,-5.49
2022-12-17T00:39:59.386Z,-5.51
2022-12-17T00:43:46.377Z,-5.53
2022-12-17T00:47:30.931Z,-5.54
2022-12-17T00:51:16.316Z,-5.54
2022-12-17T00:55:00.475Z,-5.57
2022-12-17T00:58:44.832Z,-5.63
2022-12-17T01:02:29.485Z,-5.70
2022-12-17T01:06:13.779Z,-5.75
2022-12-17T01:09:57.897Z,-5.79
2022-12-17T01:13:42.097Z,-5.82
2022-12-17T01:17:26.558Z,-5.84
2022-12-17T01:21:16.319Z,-5.87
2022-12-17T01:25:00.704Z,-5.88
2022-12-17T01:28:45.786Z,-5.91
2022-12-17T01:32:30.136Z,-5.95
2022-12-17T01:36:16.196Z,-5.95
2022-12-17T01:40:00.460Z,-5.98
2022-12-17T01:43:56.862Z,-6.00
2022-12-17T01:47:41.021Z,-6.01
2022-12-17T01:51:25.997Z,-6.01
2022-12-17T01:55:10.798Z,-6.03
2022-12-17T01:58:55.883Z,-6.06
2022-12-17T02:02:41.402Z,-6.09
2022-12-17T02:06:31.184Z,-6.09
2022-12-17T02:10:26.694Z,-6.09
2022-12-17T02:14:22.027Z,-6.08
2022-12-17T02:18:12.599Z,-6.10
2022-12-17T02:21:58.802Z,-6.13
2022-12-17T02:25:54.054Z,-6.14
2022-12-17T02:29:41.320Z,-6.16
2022-12-17T02:33:26.337Z,-6.19
2022-12-17T02:37:11.104Z,-6.20
2022-12-17T02:40:56.828Z,-6.20
2022-12-17T02:44:42.921Z,-6.20
2022-12-17T02:48:29.039Z,-6.19
2022-12-17T02:52:14.197Z,-6.18
2022-12-17T02:55:58.292Z,-6.20
2022-12-17T02:59:43.500Z,-6.22
2022-12-17T03:03:31.115Z,-6.25
2022-12-17T03:07:15.459Z,-6.27
2022-12-17T03:11:00.019Z,-6.30
2022-12-17T03:14:44.311Z,-6.32
2022-12-17T03:18:28.844Z,-6.33
2022-12-17T03:22:12.885Z,-6.34
2022-12-17T03:25:57.371Z,-6.35
2022-12-17T03:29:41.694Z,-6.37
2022-12-17T03:33:28.554Z,-6.36
2022-12-17T03:37:12.937Z,-6.35
2022-12-17T03:41:08.617Z,-6.34
2022-12-17T03:44:52.661Z,-6.37
2022-12-17T03:48:37.041Z,-6.40
2022-12-17T03:52:26.679Z,-6.44
2022-12-17T03:56:10.631Z,-6.46
2022-12-17T03:59:53.683Z,-6.47
2022-12-17T04:03:38.628Z,-6.49
2022-12-17T04:07:23.129Z,-6.50
2022-12-17T04:11:06.488Z,-6.50
2022-12-17T04:14:50.689Z,-6.49
2022-12-17T04:18:35.170Z,-6.48
2022-12-17T04:22:19.605Z,-6.46
2022-12-17T04:26:03.745Z,-6.44
2022-12-17T04:29:47.742Z,-6.41
2022-12-17T04:33:31.774Z,-6.39
2022-12-17T04:37:15.826Z,-6.35
2022-12-17T04:41:00.296Z,-6.31
2022-12-17T04:44:44.798Z,-6.27
2022-12-17T04:48:29.317Z,-6.22
2022-12-17T04:52:13.636Z,-6.16
2022-12-17T04:55:58.085Z,-6.11
2022-12-17T04:59:42.203Z,-6.06
2022-12-17T05:03:30.110Z,-6.02
2022-12-17T05:07:14.798Z,-5.97
2022-12-17T05:10:59.391Z,-5.94
2022-12-17T05:14:43.958Z,-5.90
2022-12-17T05:18:28.968Z,-5.86
2022-12-17T05:22:14.357Z,-5.83
2022-12-17T05:25:59.002Z,-5.80
2022-12-17T05:29:43.913Z,-5.76
2022-12-17T05:33:28.298Z,-5.72
2022-12-17T05:37:17.962Z,-5.67
2022-12-17T05:41:02.596Z,-5.64
2022-12-17T05:44:47.068Z,-5.60
2022-12-17T05:48:31.409Z,-5.54
2022-12-17T05:52:15.693Z,-5.50
2022-12-17T05:55:59.983Z,-5.47
2022-12-17T05:59:44.339Z,-5.43
2022-12-17T06:03:29.432Z,-5.40
2022-12-17T06:07:13.443Z,-5.36
2022-12-17T06:10:57.322Z,-5.32
2022-12-17T06:14:41.448Z,-5.29
2022-12-17T06:18:25.838Z,-5.23
2022-12-17T06:22:10.240Z,-5.19
2022-12-17T06:25:54.694Z,-5.16
2022-12-17T06:29:39.338Z,-5.13
2022-12-17T06:33:28.437Z,-5.10
2022-12-17T06:37:11.272Z,-5.07
2022-12-17T06:40:55.582Z,-5.03
2022-12-17T06:44:40.101Z,-4.99
2022-12-17T06:48:26.756Z,-4.95
2022-12-17T06:52:11.100Z,-4.90
2022-12-17T06:55:55.104Z,-4.86
2022-12-17T06:59:39.521Z,-4.81
2022-12-17T07:03:23.979Z,-4.77
2022-12-17T07:07:08.422Z,-4.71
2022-12-17T07:10:52.852Z,-4.67
2022-12-17T07:14:38.649Z,-4.63
2022-12-17T07:18:24.548Z,-4.59
2022-12-17T07:22:08.645Z,-4.53
2022-12-17T07:25:52.662Z,-4.48
2022-12-17T07:29:38.621Z,-4.42
2022-12-17T07:33:25.639Z,-4.35
2022-12-17T07:37:09.941Z,-4.29
2022-12-17T07:40:54.078Z,-4.21
2022-12-17T07:44:38.407Z,-4.14
2022-12-17T07:48:22.751Z,-4.08
2022-12-17T07:52:07.177Z,-4.01
2022-12-17T07:55:51.392Z,-3.95
2022-12-17T07:59:35.486Z,-3.90
2022-12-17T08:03:25.452Z,-3.84
2022-12-17T08:07:13.883Z,-3.75
2022-12-17T08:10:58.404Z,-3.67
2022-12-17T08:14:42.519Z,-3.61
2022-12-17T08:18:27.117Z,-3.56
2022-12-17T08:22:11.509Z,-3.51
2022-12-17T08:25:55.989Z,-3.46
2022-12-17T08:29:40.357Z,-3.40
2022-12-17T08:33:25.891Z,-3.35
2022-12-17T08:37:10.635Z,-3.31
2022-12-17T08:40:54.921Z,-3.27
2022-12-17T08:44:39.408Z,-3.24
2022-12-17T08:48:26.248Z,-3.21
2022-12-17T08:52:10.414Z,-3.18
2022-12-17T08:55:54.948Z,-3.15
2022-12-17T08:59:41.387Z,-3.11
2022-12-17T09:03:26.020Z,-3.09
2022-12-17T09:07:10.341Z,-3.07
2022-12-17T09:10:56.920Z,-3.06
2022-12-17T09:14:41.195Z,-3.06
2022-12-17T09:18:25.571Z,-3.04
2022-12-17T09:22:10.086Z,-3.00
2022-12-17T09:25:58.104Z,-2.98
2022-12-17T09:29:42.768Z,-2.96
2022-12-17T09:33:27.378Z,-2.95
2022-12-17T09:37:11.984Z,-2.91
2022-12-17T09:40:58.251Z,-2.89
2022-12-17T09:44:49.173Z,-2.87
2022-12-17T09:48:42.422Z,-2.85
2022-12-17T09:52:38.331Z,-2.86
2022-12-17T09:56:23.514Z,-2.83
2022-12-17T10:00:07.525Z,-2.76
2022-12-17T10:04:00.668Z,-2.72
2022-12-17T10:07:49.913Z,-2.68
2022-12-17T10:11:40.540Z,-2.67
2022-12-17T10:15:27.185Z,-2.65
2022-12-17T10:19:11.881Z,-2.62
2022-12-17T10:23:04.519Z,-2.60
2022-12-17T10:26:50.032Z,-2.53
2022-12-17T10:30:37.651Z,-2.49
2022-12-17T10:34:25.418Z,-2.46
2022-12-17T10:38:09.900Z,-2.43
2022-12-17T10:41:59.516Z,-2.42
2022-12-17T10:46:01.568Z,-2.41
2022-12-17T10:49:45.608Z,-2.38
2022-12-17T10:53:41.375Z,-2.31
2022-12-17T10:57:26.889Z,-2.21
2022-12-17T11:01:20.685Z,-2.18
2022-12-17T11:05:12.929Z,-2.18
2022-12-17T11:08:58.046Z,-2.14
2022-12-17T11:12:49.314Z,-2.13
2022-12-17T11:16:40.718Z,-2.08
2022-12-17T11:20:37.753Z,-2.04
2022-12-17T11:24:23.321Z,-2.02
2022-12-17T11:28:25.609Z,-2.05
2022-12-17T11:32:31.212Z,-2.06
2022-12-17T11:36:31.263Z,-2.07
2022-12-17T11:40:32.703Z,-2.11
2022-12-17T11:44:26.787Z,-2.16
2022-12-17T11:48:18.533Z,-2.21
2022-12-17T11:52:12.561Z,-2.20
2022-12-17T11:56:05.268Z,-2.14
2022-12-17T11:59:55.139Z,-2.06
2022-12-17T12:03:54.759Z,-2.07
2022-12-17T12:07:48.486Z,-2.06
2022-12-17T12:11:44.351Z,-2.06
2022-12-17T12:15:40.552Z,-2.07
2022-12-17T12:19:51.349Z,-2.09
2022-12-17T12:23:40.401Z,-2.19
2022-12-17T12:27:42.372Z,-2.20
2022-12-17T12:31:36.132Z,-2.19
2022-12-17T12:35:23.248Z,-2.19
2022-12-17T12:39:11.593Z,-2.20
2022-12-17T12:43:03.938Z,-2.23
2022-12-17T12:46:56.960Z,-2.24
2022-12-17T12:50:47.805Z,-2.30
2022-12-17T12:54:44.920Z,-2.36
2022-12-17T12:58:46.592Z,-2.39
2022-12-17T13:02:45.937Z,-2.43
2022-12-17T13:06:15.056Z,-2.46
2022-12-17T13:09:51.176Z,-2.49
2022-12-17T13:13:29.191Z,-2.46
2022-12-17T13:17:00.853Z,-2.43
2022-12-17T13:20:31.568Z,-2.44
2022-12-17T13:23:59.080Z,-2.47
2022-12-17T13:27:37.400Z,-2.48
2022-12-17T13:31:06.491Z,-2.52
2022-12-17T13:34:43.089Z,-2.58
2022-12-17T13:38:19.096Z,-2.61
2022-12-17T13:41:47.005Z,-2.60
2022-12-17T13:45:18.172Z,-2.60
2022-12-17T13:48:45.009Z,-2.64
2022-12-17T13:52:21.176Z,-2.67
2022-12-17T13:55:53.960Z,-2.72
2022-12-17T13:59:22.935Z,-2.76
2022-12-17T14:02:49.873Z,-2.77
2022-12-17T14:06:17.265Z,-2.73
2022-12-17T14:09:46.603Z,-2.70
2022-12-17T14:13:18.061Z,-2.73
2022-12-17T14:16:50.684Z,-2.83
2022-12-17T14:20:21.573Z,-2.93
2022-12-17T14:23:51.589Z,-2.98
2022-12-17T14:27:28.848Z,-3.01
2022-12-17T14:35:00.232Z,-3.07
2022-12-17T14:38:37.887Z,-3.08
2022-12-17T14:42:29.621Z,-3.08
2022-12-17T14:46:19.615Z,-3.09
2022-12-17T14:49:56.899Z,-3.08
2022-12-17T14:53:28.623Z,-3.05
2022-12-17T14:56:57.680Z,-3.02
2022-12-17T15:00:24.296Z,-2.99
2022-12-17T15:03:50.915Z,-2.98
2022-12-17T15:07:23.733Z,-2.96
2022-12-17T15:10:50.344Z,-2.94
2022-12-17T15:14:16.919Z,-2.89
2022-12-17T15:17:43.696Z,-2.85
2022-12-17T15:21:14.209Z,-2.81
2022-12-17T15:24:40.881Z,-2.77
2022-12-17T15:28:09.057Z,-2.74
2022-12-17T15:31:36.085Z,-2.70
2022-12-17T15:35:02.979Z,-2.65
2022-12-17T15:38:29.520Z,-2.60
2022-12-17T15:42:13.655Z,-2.55
2022-12-17T15:45:41.100Z,-2.50
2022-12-17T15:49:07.872Z,-2.45
2022-12-17T15:52:34.739Z,-2.41
2022-12-17T15:56:04.659Z,-2.36
2022-12-17T15:59:33.673Z,-2.33
2022-12-17T16:03:01.375Z,-2.31
2022-12-17T16:06:29.317Z,-2.29
2022-12-17T16:10:00.237Z,-2.27
2022-12-17T16:13:29.998Z,-2.24
2022-12-17T16:16:56.525Z,-2.22
2022-12-17T16:20:23.349Z,-2.20
2022-12-17T16:23:49.961Z,-2.18
2022-12-17T16:27:18.158Z,-2.16
2022-12-17T16:30:44.902Z,-2.13
2022-12-17T16:34:12.399Z,-2.12
2022-12-17T16:37:39.058Z,-2.11
2022-12-17T16:41:06.229Z,-2.10
2022-12-17T16:44:32.763Z,-2.09
2022-12-17T16:47:59.627Z,-2.08
2022-12-17T16:51:29.788Z,-2.08
2022-12-17T16:54:56.807Z,-2.09
2022-12-17T16:58:23.728Z,-2.10
2022-12-17T17:01:52.693Z,-2.12
2022-12-17T17:05:19.687Z,-2.13
2022-12-17T17:08:46.687Z,-2.13
2022-12-17T17:12:13.620Z,-2.11
2022-12-17T17:15:40.455Z,-2.12
2022-12-17T17:19:08.048Z,-2.12
2022-12-17T17:22:34.690Z,-2.14
2022-12-17T17:26:02.772Z,-2.15
2022-12-17T17:29:29.318Z,-2.15
2022-12-17T17:32:55.905Z,-2.15
2022-12-17T17:36:24.442Z,-2.16
2022-12-17T17:39:51.057Z,-2.17
2022-12-17T17:43:18.159Z,-2.17
2022-12-17T17:46:45.469Z,-2.18
2022-12-17T17:50:12.679Z,-2.19
2022-12-17T17:53:39.920Z,-2.20
2022-12-17T17:57:06.668Z,-2.22
2022-12-17T18:00:33.152Z,-2.25
2022-12-17T18:04:02.296Z,-2.29
2022-12-17T18:07:28.977Z,-2.31
2022-12-17T18:11:00.244Z,-2.34
2022-12-17T18:14:27.336Z,-2.35
2022-12-17T18:17:54.352Z,-2.37
2022-12-17T18:21:23.163Z,-2.38
2022-12-17T18:24:49.681Z,-2.39
2022-12-17T18:28:16.261Z,-2.42
2022-12-17T18:31:45.934Z,-2.43
2022-12-17T18:35:17.012Z,-2.44
2022-12-17T18:38:44.560Z,-2.45
2022-12-17T18:42:29.730Z,-2.46
2022-12-17T18:45:56.429Z,-2.47
2022-12-17T18:49:26.708Z,-2.50
2022-12-17T18:52:53.249Z,-2.51
2022-12-17T18:56:44.860Z,-2.53
2022-12-17T19:00:08.698Z,-2.55
2022-12-17T19:03:35.711Z,-2.56
2022-12-17T19:07:02.515Z,-2.58
2022-12-17T19:10:29.165Z,-2.59
2022-12-17T19:13:56.101Z,-2.59
2022-12-17T19:17:22.738Z,-2.61
2022-12-17T19:20:49.612Z,-2.64
2022-12-17T19:24:18.590Z,-2.67
2022-12-17T19:27:45.569Z,-2.69
2022-12-17T19:31:13.226Z,-2.71
2022-12-17T19:34:40.319Z,-2.73
2022-12-17T19:38:06.841Z,-2.76
2022-12-17T19:41:34.378Z,-2.77
2022-12-17T19:45:01.059Z,-2.79
2022-12-17T19:48:27.657Z,-2.81
2022-12-17T19:51:54.247Z,-2.83
2022-12-17T19:55:21.751Z,-2.84
2022-12-17T19:58:52.519Z,-2.86
2022-12-17T20:02:20.000Z,-2.87
2022-12-17T20:05:48.130Z,-2.91
2022-12-17T20:09:17.445Z,-2.94
2022-12-17T20:12:44.619Z,-2.97
2022-12-17T20:16:12.002Z,-3.01
2022-12-17T20:19:38.774Z,-3.04
2022-12-17T20:23:05.782Z,-3.08
2022-12-17T20:26:32.789Z,-3.12
2022-12-17T20:29:59.719Z,-3.17
2022-12-17T20:33:26.558Z,-3.21
2022-12-17T20:36:53.997Z,-3.24
2022-12-17T20:40:21.644Z,-3.27
2022-12-17T20:43:48.554Z,-3.30
2022-12-17T20:47:15.386Z,-3.34
2022-12-17T20:50:42.276Z,-3.37
2022-12-17T20:54:09.374Z,-3.40
2022-12-17T20:57:36.026Z,-3.43
2022-12-17T21:01:08.413Z,-3.48
2022-12-17T21:04:35.205Z,-3.51
2022-12-17T21:08:01.749Z,-3.53
2022-12-17T21:11:30.497Z,-3.56
2022-12-17T21:14:57.134Z,-3.60
2022-12-17T21:18:23.826Z,-3.63
2022-12-17T21:21:50.389Z,-3.68
2022-12-17T21:25:17.198Z,-3.73
2022-12-17T21:28:46.060Z,-3.79
2022-12-17T21:32:12.768Z,-3.84
2022-12-17T21:35:39.476Z,-3.87
2022-12-17T21:39:09.779Z,-3.89
2022-12-17T21:42:54.160Z,-3.89
2022-12-17T21:46:21.781Z,-3.92
2022-12-17T21:49:49.450Z,-3.95
2022-12-17T21:53:16.931Z,-3.98
2022-12-17T21:56:44.819Z,-4.01
2022-12-17T22:00:13.926Z,-4.03
2022-12-17T22:03:40.846Z,-4.07
2022-12-17T22:07:16.518Z,-4.11
2022-12-17T22:10:49.115Z,-4.15
2022-12-17T22:14:21.076Z,-4.16
2022-12-17T22:17:48.162Z,-4.16
2022-12-17T22:21:14.832Z,-4.16
2022-12-17T22:24:41.417Z,-4.16
2022-12-17T22:28:08.353Z,-4.17
2022-12-17T22:31:52.816Z,-4.18
2022-12-17T22:37:50.942Z,-4.20
2022-12-17T22:44:28.919Z,-4.23
2022-12-17T22:44:41.940Z,-4.23
2022-12-17T22:47:02.101Z,-4.25
2022-12-17T22:50:33.885Z,-4.28
2022-12-17T22:54:10.001Z,-4.32
2022-12-17T22:57:38.445Z,-4.33
2022-12-17T23:01:07.167Z,-4.34
2022-12-17T23:04:33.871Z,-4.36
2022-12-17T23:08:01.216Z,-4.38
2022-12-17T23:11:29.707Z,-4.40
2022-12-17T23:14:56.460Z,-4.42
2022-12-17T23:18:23.205Z,-4.45
2022-12-17T23:21:50.157Z,-4.49
2022-12-17T23:25:17.722Z,-4.51
2022-12-17T23:28:44.861Z,-4.56
2022-12-17T23:32:11.537Z,-4.61
2022-12-17T23:35:38.172Z,-4.65
2022-12-17T23:39:05.715Z,-4.68
2022-12-17T23:42:32.800Z,-4.74
2022-12-17T23:45:59.451Z,-4.78
2022-12-17T23:49:26.164Z,-4.82
2022-12-17T23:52:53.502Z,-4.86
2022-12-17T23:56:23.057Z,-4.93
2022-12-17T23:59:49.906Z,-4.99
